sensor_id;sensor_type;location;lat;lon;timestamp;P1;durP1;ratioP1;P2;durP2;ratioP2
64894;SDS011;51588;53.702;10.208;2023-04-03T00:01:17;1.80;;;1.50;;
64894;SDS011;51588;53.702;10.208;2023-04-03T00:03:46;1.93;;;1.47;;
64894;SDS011;51588;53.702;10.208;2023-04-03T00:06:13;3.20;;;1.50;;
64894;SDS011;51588;53.702;10.208;2023-04-03T00:08:40;1.50;;;1.40;;
64894;SDS011;51588;53.702;10.208;2023-04-03T00:11:07;1.87;;;1.33;;
64894;SDS011;51588;53.702;10.208;2023-04-03T00:13:34;3.10;;;1.70;;
64894;SDS011;51588;53.702;10.208;2023-04-03T00:16:02;3.10;;;1.67;;
64894;SDS011;51588;53.702;10.208;2023-04-03T00:18:29;1.90;;;1.40;;
64894;SDS011;51588;53.702;10.208;2023-04-03T00:20:57;2.63;;;1.40;;
64894;SDS011;51588;53.702;10.208;2023-04-03T00:23:24;2.50;;;1.37;;
64894;SDS011;51588;53.702;10.208;2023-04-03T00:25:50;2.30;;;1.50;;
64894;SDS011;51588;53.702;10.208;2023-04-03T00:28:17;1.50;;;1.33;;
64894;SDS011;51588;53.702;10.208;2023-04-03T00:30:44;1.70;;;1.27;;
64894;SDS011;51588;53.702;10.208;2023-04-03T00:33:11;2.07;;;1.40;;
64894;SDS011;51588;53.702;10.208;2023-04-03T00:35:38;3.20;;;1.27;;
64894;SDS011;51588;53.702;10.208;2023-04-03T00:38:06;1.63;;;1.40;;
64894;SDS011;51588;53.702;10.208;2023-04-03T00:40:33;1.50;;;1.40;;
64894;SDS011;51588;53.702;10.208;2023-04-03T00:43:01;2.73;;;1.50;;
64894;SDS011;51588;53.702;10.208;2023-04-03T00:45:37;1.30;;;1.20;;
64894;SDS011;51588;53.702;10.208;2023-04-03T00:48:05;3.13;;;1.63;;
64894;SDS011;51588;53.702;10.208;2023-04-03T00:50:34;1.87;;;1.50;;
64894;SDS011;51588;53.702;10.208;2023-04-03T00:53:03;3.33;;;1.43;;
64894;SDS011;51588;53.702;10.208;2023-04-03T00:55:34;2.57;;;1.50;;
64894;SDS011;51588;53.702;10.208;2023-04-03T00:58:02;1.83;;;1.57;;
64894;SDS011;51588;53.702;10.208;2023-04-03T01:00:32;1.47;;;1.37;;
64894;SDS011;51588;53.702;10.208;2023-04-03T01:02:59;1.83;;;1.30;;
64894;SDS011;51588;53.702;10.208;2023-04-03T01:05:25;6.80;;;1.40;;
64894;SDS011;51588;53.702;10.208;2023-04-03T01:07:52;1.77;;;1.40;;
64894;SDS011;51588;53.702;10.208;2023-04-03T01:10:21;2.37;;;1.40;;
64894;SDS011;51588;53.702;10.208;2023-04-03T01:12:48;2.13;;;1.30;;
64894;SDS011;51588;53.702;10.208;2023-04-03T01:15:17;2.70;;;1.30;;
64894;SDS011;51588;53.702;10.208;2023-04-03T01:17:46;1.50;;;1.40;;
64894;SDS011;51588;53.702;10.208;2023-04-03T01:20:20;1.87;;;1.33;;
64894;SDS011;51588;53.702;10.208;2023-04-03T01:23:17;4.73;;;1.70;;
64894;SDS011;51588;53.702;10.208;2023-04-03T01:25:53;1.63;;;1.10;;
64894;SDS011;51588;53.702;10.208;2023-04-03T01:28:22;2.50;;;1.30;;
64894;SDS011;51588;53.702;10.208;2023-04-03T01:30:51;1.33;;;1.23;;
64894;SDS011;51588;53.702;10.208;2023-04-03T01:33:26;1.80;;;1.17;;
64894;SDS011;51588;53.702;10.208;2023-04-03T01:35:53;1.33;;;1.20;;
64894;SDS011;51588;53.702;10.208;2023-04-03T01:38:20;1.93;;;1.40;;
64894;SDS011;51588;53.702;10.208;2023-04-03T01:40:47;1.87;;;1.33;;
64894;SDS011;51588;53.702;10.208;2023-04-03T01:43:13;3.50;;;1.30;;
64894;SDS011;51588;53.702;10.208;2023-04-03T01:45:40;2.63;;;1.43;;
64894;SDS011;51588;53.702;10.208;2023-04-03T01:48:07;2.30;;;1.50;;
64894;SDS011;51588;53.702;10.208;2023-04-03T01:50:35;1.40;;;1.30;;
64894;SDS011;51588;53.702;10.208;2023-04-03T01:53:01;1.77;;;1.20;;
64894;SDS011;51588;53.702;10.208;2023-04-03T01:55:28;2.90;;;1.90;;
64894;SDS011;51588;53.702;10.208;2023-04-03T01:57:55;2.10;;;1.50;;
64894;SDS011;51588;53.702;10.208;2023-04-03T02:00:21;1.20;;;1.10;;
64894;SDS011;51588;53.702;10.208;2023-04-03T02:02:48;1.87;;;1.30;;
64894;SDS011;51588;53.702;10.208;2023-04-03T02:05:15;2.20;;;1.20;;
64894;SDS011;51588;53.702;10.208;2023-04-03T02:07:43;1.43;;;1.30;;
64894;SDS011;51588;53.702;10.208;2023-04-03T02:10:10;1.43;;;1.33;;
64894;SDS011;51588;53.702;10.208;2023-04-03T02:12:38;1.67;;;1.50;;
64894;SDS011;51588;53.702;10.208;2023-04-03T02:15:06;1.10;;;0.93;;
64894;SDS011;51588;53.702;10.208;2023-04-03T02:17:34;1.43;;;1.30;;
64894;SDS011;51588;53.702;10.208;2023-04-03T02:20:01;1.70;;;1.23;;
64894;SDS011;51588;53.702;10.208;2023-04-03T02:22:28;1.47;;;1.30;;
64894;SDS011;51588;53.702;10.208;2023-04-03T02:24:56;1.63;;;1.37;;
64894;SDS011;51588;53.702;10.208;2023-04-03T02:27:23;1.53;;;1.20;;
64894;SDS011;51588;53.702;10.208;2023-04-03T02:29:49;1.40;;;1.27;;
64894;SDS011;51588;53.702;10.208;2023-04-03T02:32:16;1.87;;;1.30;;
64894;SDS011;51588;53.702;10.208;2023-04-03T02:34:42;1.40;;;1.00;;
64894;SDS011;51588;53.702;10.208;2023-04-03T02:37:09;2.10;;;1.40;;
64894;SDS011;51588;53.702;10.208;2023-04-03T02:39:36;1.40;;;1.20;;
64894;SDS011;51588;53.702;10.208;2023-04-03T02:42:04;1.30;;;1.00;;
64894;SDS011;51588;53.702;10.208;2023-04-03T02:44:31;1.63;;;1.27;;
64894;SDS011;51588;53.702;10.208;2023-04-03T02:46:57;1.30;;;1.20;;
64894;SDS011;51588;53.702;10.208;2023-04-03T02:49:24;1.80;;;1.20;;
64894;SDS011;51588;53.702;10.208;2023-04-03T02:51:50;2.20;;;1.20;;
64894;SDS011;51588;53.702;10.208;2023-04-03T02:54:17;2.00;;;1.27;;
64894;SDS011;51588;53.702;10.208;2023-04-03T02:56:44;1.67;;;1.20;;
64894;SDS011;51588;53.702;10.208;2023-04-03T02:59:12;1.50;;;1.10;;
64894;SDS011;51588;53.702;10.208;2023-04-03T03:01:39;2.53;;;1.23;;
64894;SDS011;51588;53.702;10.208;2023-04-03T03:04:06;1.30;;;1.20;;
64894;SDS011;51588;53.702;10.208;2023-04-03T03:06:32;1.30;;;1.20;;
64894;SDS011;51588;53.702;10.208;2023-04-03T03:08:59;1.53;;;1.23;;
64894;SDS011;51588;53.702;10.208;2023-04-03T03:11:26;1.20;;;1.10;;
64894;SDS011;51588;53.702;10.208;2023-04-03T03:13:52;1.90;;;1.27;;
64894;SDS011;51588;53.702;10.208;2023-04-03T03:16:20;1.40;;;1.20;;
64894;SDS011;51588;53.702;10.208;2023-04-03T03:18:47;1.30;;;1.00;;
64894;SDS011;51588;53.702;10.208;2023-04-03T03:21:13;1.40;;;1.30;;
64894;SDS011;51588;53.702;10.208;2023-04-03T03:23:40;1.70;;;1.30;;
64894;SDS011;51588;53.702;10.208;2023-04-03T03:26:08;1.53;;;1.20;;
64894;SDS011;51588;53.702;10.208;2023-04-03T03:28:36;1.83;;;1.20;;
64894;SDS011;51588;53.702;10.208;2023-04-03T03:31:04;1.50;;;1.10;;
64894;SDS011;51588;53.702;10.208;2023-04-03T03:33:32;1.50;;;1.00;;
64894;SDS011;51588;53.702;10.208;2023-04-03T03:35:59;1.27;;;1.17;;
64894;SDS011;51588;53.702;10.208;2023-04-03T03:38:26;2.27;;;1.40;;
64894;SDS011;51588;53.702;10.208;2023-04-03T03:40:53;3.63;;;1.40;;
64894;SDS011;51588;53.702;10.208;2023-04-03T03:43:19;1.30;;;1.10;;
64894;SDS011;51588;53.702;10.208;2023-04-03T03:45:46;1.30;;;1.00;;
64894;SDS011;51588;53.702;10.208;2023-04-03T03:48:16;1.30;;;0.93;;
64894;SDS011;51588;53.702;10.208;2023-04-03T03:50:44;1.33;;;1.17;;
64894;SDS011;51588;53.702;10.208;2023-04-03T03:53:11;3.10;;;1.10;;
64894;SDS011;51588;53.702;10.208;2023-04-03T03:55:37;1.20;;;1.10;;
64894;SDS011;51588;53.702;10.208;2023-04-03T03:58:04;1.40;;;1.10;;
64894;SDS011;51588;53.702;10.208;2023-04-03T04:00:31;2.10;;;1.27;;
64894;SDS011;51588;53.702;10.208;2023-04-03T04:02:57;2.27;;;1.40;;
64894;SDS011;51588;53.702;10.208;2023-04-03T04:05:24;1.50;;;1.17;;
64894;SDS011;51588;53.702;10.208;2023-04-03T04:07:52;1.60;;;1.10;;
64894;SDS011;51588;53.702;10.208;2023-04-03T04:10:19;1.27;;;1.17;;
64894;SDS011;51588;53.702;10.208;2023-04-03T04:12:45;1.20;;;1.10;;
64894;SDS011;51588;53.702;10.208;2023-04-03T04:15:14;1.63;;;1.00;;
64894;SDS011;51588;53.702;10.208;2023-04-03T04:17:40;1.13;;;1.03;;
64894;SDS011;51588;53.702;10.208;2023-04-03T04:20:07;1.20;;;1.00;;
64894;SDS011;51588;53.702;10.208;2023-04-03T04:22:34;1.83;;;1.20;;
64894;SDS011;51588;53.702;10.208;2023-04-03T04:25:02;1.13;;;1.00;;
64894;SDS011;51588;53.702;10.208;2023-04-03T04:27:29;1.30;;;0.90;;
64894;SDS011;51588;53.702;10.208;2023-04-03T04:29:56;1.17;;;1.00;;
64894;SDS011;51588;53.702;10.208;2023-04-03T04:32:22;1.20;;;1.10;;
64894;SDS011;51588;53.702;10.208;2023-04-03T04:34:49;1.63;;;1.43;;
64894;SDS011;51588;53.702;10.208;2023-04-03T04:37:16;1.83;;;1.03;;
64894;SDS011;51588;53.702;10.208;2023-04-03T04:39:42;1.20;;;1.03;;
64894;SDS011;51588;53.702;10.208;2023-04-03T04:42:10;1.27;;;1.10;;
64894;SDS011;51588;53.702;10.208;2023-04-03T04:44:37;1.57;;;1.20;;
64894;SDS011;51588;53.702;10.208;2023-04-03T04:47:04;1.27;;;1.10;;
64894;SDS011;51588;53.702;10.208;2023-04-03T04:49:31;1.60;;;1.20;;
64894;SDS011;51588;53.702;10.208;2023-04-03T04:51:57;1.33;;;1.00;;
64894;SDS011;51588;53.702;10.208;2023-04-03T04:54:24;2.60;;;1.43;;
64894;SDS011;51588;53.702;10.208;2023-04-03T04:56:51;1.63;;;1.17;;
64894;SDS011;51588;53.702;10.208;2023-04-03T04:59:19;1.30;;;1.10;;
64894;SDS011;51588;53.702;10.208;2023-04-03T05:01:45;1.50;;;1.10;;
64894;SDS011;51588;53.702;10.208;2023-04-03T05:04:12;1.40;;;1.13;;
64894;SDS011;51588;53.702;10.208;2023-04-03T05:06:38;2.00;;;1.27;;
64894;SDS011;51588;53.702;10.208;2023-04-03T05:09:05;1.20;;;0.97;;
64894;SDS011;51588;53.702;10.208;2023-04-03T05:11:32;1.67;;;1.10;;
64894;SDS011;51588;53.702;10.208;2023-04-03T05:13:58;1.50;;;1.00;;
64894;SDS011;51588;53.702;10.208;2023-04-03T05:16:26;1.43;;;1.20;;
64894;SDS011;51588;53.702;10.208;2023-04-03T05:18:53;2.00;;;1.03;;
64894;SDS011;51588;53.702;10.208;2023-04-03T05:21:20;2.73;;;1.77;;
64894;SDS011;51588;53.702;10.208;2023-04-03T05:23:48;4.20;;;1.37;;
64894;SDS011;51588;53.702;10.208;2023-04-03T05:26:15;5.33;;;1.80;;
64894;SDS011;51588;53.702;10.208;2023-04-03T05:28:41;12.83;;;3.43;;
64894;SDS011;51588;53.702;10.208;2023-04-03T05:31:09;15.97;;;4.03;;
64894;SDS011;51588;53.702;10.208;2023-04-03T05:33:37;21.43;;;4.33;;
64894;SDS011;51588;53.702;10.208;2023-04-03T05:36:04;12.83;;;4.00;;
64894;SDS011;51588;53.702;10.208;2023-04-03T05:38:31;10.80;;;3.20;;
64894;SDS011;51588;53.702;10.208;2023-04-03T05:40:58;7.33;;;3.00;;
64894;SDS011;51588;53.702;10.208;2023-04-03T05:43:25;8.80;;;3.10;;
64894;SDS011;51588;53.702;10.208;2023-04-03T05:45:51;5.73;;;2.70;;
64894;SDS011;51588;53.702;10.208;2023-04-03T05:48:18;8.30;;;2.50;;
64894;SDS011;51588;53.702;10.208;2023-04-03T05:50:46;7.77;;;2.70;;
64894;SDS011;51588;53.702;10.208;2023-04-03T05:53:14;8.47;;;2.50;;
64894;SDS011;51588;53.702;10.208;2023-04-03T05:55:45;18.90;;;3.40;;
64894;SDS011;51588;53.702;10.208;2023-04-03T05:58:11;13.97;;;3.33;;
64894;SDS011;51588;53.702;10.208;2023-04-03T06:00:38;14.90;;;3.67;;
64894;SDS011;51588;53.702;10.208;2023-04-03T06:03:05;14.40;;;3.97;;
64894;SDS011;51588;53.702;10.208;2023-04-03T06:05:32;18.80;;;3.60;;
64894;SDS011;51588;53.702;10.208;2023-04-03T06:08:00;13.97;;;3.53;;
64894;SDS011;51588;53.702;10.208;2023-04-03T06:10:28;15.57;;;3.73;;
64894;SDS011;51588;53.702;10.208;2023-04-03T06:12:54;11.63;;;3.00;;
64894;SDS011;51588;53.702;10.208;2023-04-03T06:15:21;14.43;;;2.77;;
64894;SDS011;51588;53.702;10.208;2023-04-03T06:17:48;11.43;;;2.73;;
64894;SDS011;51588;53.702;10.208;2023-04-03T06:20:15;10.00;;;3.20;;
64894;SDS011;51588;53.702;10.208;2023-04-03T06:22:41;11.93;;;2.80;;
64894;SDS011;51588;53.702;10.208;2023-04-03T06:25:09;7.90;;;2.70;;
64894;SDS011;51588;53.702;10.208;2023-04-03T06:27:37;9.90;;;3.20;;
64894;SDS011;51588;53.702;10.208;2023-04-03T06:30:05;8.87;;;2.27;;
64894;SDS011;51588;53.702;10.208;2023-04-03T06:32:33;11.43;;;2.80;;
64894;SDS011;51588;53.702;10.208;2023-04-03T06:34:59;15.00;;;2.60;;
64894;SDS011;51588;53.702;10.208;2023-04-03T06:37:26;11.13;;;2.90;;
64894;SDS011;51588;53.702;10.208;2023-04-03T06:39:53;8.80;;;2.60;;
64894;SDS011;51588;53.702;10.208;2023-04-03T06:42:22;8.10;;;2.60;;
64894;SDS011;51588;53.702;10.208;2023-04-03T06:44:48;6.40;;;1.90;;
64894;SDS011;51588;53.702;10.208;2023-04-03T06:47:15;9.40;;;2.20;;
64894;SDS011;51588;53.702;10.208;2023-04-03T06:49:42;8.10;;;2.67;;
64894;SDS011;51588;53.702;10.208;2023-04-03T06:52:10;3.83;;;1.83;;
64894;SDS011;51588;53.702;10.208;2023-04-03T06:54:37;7.07;;;2.10;;
64894;SDS011;51588;53.702;10.208;2023-04-03T06:57:04;5.33;;;2.27;;
64894;SDS011;51588;53.702;10.208;2023-04-03T06:59:32;5.77;;;2.07;;
64894;SDS011;51588;53.702;10.208;2023-04-03T07:01:58;3.07;;;1.50;;
64894;SDS011;51588;53.702;10.208;2023-04-03T07:04:25;6.93;;;2.30;;
64894;SDS011;51588;53.702;10.208;2023-04-03T07:06:52;7.83;;;2.03;;
64894;SDS011;51588;53.702;10.208;2023-04-03T07:09:18;5.77;;;2.33;;
64894;SDS011;51588;53.702;10.208;2023-04-03T07:11:45;5.53;;;2.57;;
64894;SDS011;51588;53.702;10.208;2023-04-03T07:14:12;4.80;;;2.03;;
64894;SDS011;51588;53.702;10.208;2023-04-03T07:16:40;6.83;;;2.00;;
64894;SDS011;51588;53.702;10.208;2023-04-03T07:19:07;3.77;;;1.90;;
64894;SDS011;51588;53.702;10.208;2023-04-03T07:21:34;6.73;;;2.27;;
64894;SDS011;51588;53.702;10.208;2023-04-03T07:24:01;5.27;;;2.57;;
64894;SDS011;51588;53.702;10.208;2023-04-03T07:26:28;5.70;;;2.10;;
64894;SDS011;51588;53.702;10.208;2023-04-03T07:28:55;4.60;;;1.83;;
64894;SDS011;51588;53.702;10.208;2023-04-03T07:31:22;4.00;;;2.30;;
64894;SDS011;51588;53.702;10.208;2023-04-03T07:33:50;5.93;;;2.37;;
64894;SDS011;51588;53.702;10.208;2023-04-03T07:36:17;3.60;;;1.80;;
64894;SDS011;51588;53.702;10.208;2023-04-03T07:38:45;4.30;;;1.60;;
64894;SDS011;51588;53.702;10.208;2023-04-03T07:41:12;5.10;;;1.90;;
64894;SDS011;51588;53.702;10.208;2023-04-03T07:43:42;3.57;;;1.60;;
64894;SDS011;51588;53.702;10.208;2023-04-03T07:46:10;5.17;;;2.00;;
64894;SDS011;51588;53.702;10.208;2023-04-03T07:48:37;4.40;;;1.90;;
64894;SDS011;51588;53.702;10.208;2023-04-03T07:51:05;4.63;;;1.40;;
64894;SDS011;51588;53.702;10.208;2023-04-03T07:53:32;3.07;;;1.60;;
64894;SDS011;51588;53.702;10.208;2023-04-03T07:55:59;4.50;;;1.80;;
64894;SDS011;51588;53.702;10.208;2023-04-03T07:58:27;3.13;;;1.33;;
64894;SDS011;51588;53.702;10.208;2023-04-03T08:00:54;4.87;;;1.80;;
64894;SDS011;51588;53.702;10.208;2023-04-03T08:03:21;3.93;;;1.90;;
64894;SDS011;51588;53.702;10.208;2023-04-03T08:05:48;3.90;;;1.60;;
64894;SDS011;51588;53.702;10.208;2023-04-03T08:08:17;3.40;;;1.73;;
64894;SDS011;51588;53.702;10.208;2023-04-03T08:10:47;4.73;;;1.60;;
64894;SDS011;51588;53.702;10.208;2023-04-03T08:13:14;5.50;;;1.57;;
64894;SDS011;51588;53.702;10.208;2023-04-03T08:15:41;7.90;;;2.10;;
64894;SDS011;51588;53.702;10.208;2023-04-03T08:18:08;2.30;;;1.50;;
64894;SDS011;51588;53.702;10.208;2023-04-03T08:20:35;3.67;;;1.53;;
64894;SDS011;51588;53.702;10.208;2023-04-03T08:23:03;3.50;;;1.47;;
64894;SDS011;51588;53.702;10.208;2023-04-03T08:25:31;2.57;;;1.40;;
64894;SDS011;51588;53.702;10.208;2023-04-03T08:27:58;2.60;;;1.40;;
64894;SDS011;51588;53.702;10.208;2023-04-03T08:30:25;3.63;;;1.30;;
64894;SDS011;51588;53.702;10.208;2023-04-03T08:32:51;4.03;;;1.80;;
64894;SDS011;51588;53.702;10.208;2023-04-03T08:35:18;3.10;;;1.47;;
64894;SDS011;51588;53.702;10.208;2023-04-03T08:37:45;6.30;;;1.67;;
64894;SDS011;51588;53.702;10.208;2023-04-03T08:40:13;5.37;;;1.70;;
64894;SDS011;51588;53.702;10.208;2023-04-03T08:42:47;3.17;;;1.80;;
64894;SDS011;51588;53.702;10.208;2023-04-03T08:45:21;1.90;;;1.23;;
64894;SDS011;51588;53.702;10.208;2023-04-03T08:47:55;2.50;;;1.43;;
64894;SDS011;51588;53.702;10.208;2023-04-03T08:50:28;2.50;;;1.37;;
64894;SDS011;51588;53.702;10.208;2023-04-03T08:52:58;1.93;;;1.30;;
64894;SDS011;51588;53.702;10.208;2023-04-03T08:55:26;2.87;;;1.27;;
64894;SDS011;51588;53.702;10.208;2023-04-03T08:57:58;2.07;;;1.23;;
64894;SDS011;51588;53.702;10.208;2023-04-03T09:00:28;4.13;;;1.30;;
64894;SDS011;51588;53.702;10.208;2023-04-03T09:02:59;2.23;;;1.00;;
64894;SDS011;51588;53.702;10.208;2023-04-03T09:05:29;2.90;;;1.27;;
64894;SDS011;51588;53.702;10.208;2023-04-03T09:08:04;2.67;;;1.60;;
64894;SDS011;51588;53.702;10.208;2023-04-03T09:10:38;2.67;;;1.30;;
64894;SDS011;51588;53.702;10.208;2023-04-03T09:13:10;2.60;;;1.17;;
64894;SDS011;51588;53.702;10.208;2023-04-03T09:15:44;2.63;;;1.20;;
64894;SDS011;51588;53.702;10.208;2023-04-03T09:18:12;2.73;;;1.30;;
64894;SDS011;51588;53.702;10.208;2023-04-03T09:20:43;2.03;;;1.30;;
64894;SDS011;51588;53.702;10.208;2023-04-03T09:23:18;2.23;;;1.20;;
64894;SDS011;51588;53.702;10.208;2023-04-03T09:25:51;2.00;;;1.20;;
64894;SDS011;51588;53.702;10.208;2023-04-03T09:28:24;3.87;;;1.20;;
64894;SDS011;51588;53.702;10.208;2023-04-03T09:30:51;1.23;;;0.93;;
64894;SDS011;51588;53.702;10.208;2023-04-03T09:33:17;3.03;;;1.10;;
64894;SDS011;51588;53.702;10.208;2023-04-03T09:35:46;1.77;;;1.00;;
64894;SDS011;51588;53.702;10.208;2023-04-03T09:38:16;1.60;;;1.10;;
64894;SDS011;51588;53.702;10.208;2023-04-03T09:40:45;2.13;;;0.97;;
64894;SDS011;51588;53.702;10.208;2023-04-03T09:43:25;3.37;;;1.43;;
64894;SDS011;51588;53.702;10.208;2023-04-03T09:45:53;2.70;;;1.23;;
64894;SDS011;51588;53.702;10.208;2023-04-03T09:48:22;2.50;;;1.10;;
64894;SDS011;51588;53.702;10.208;2023-04-03T09:50:54;2.10;;;1.00;;
64894;SDS011;51588;53.702;10.208;2023-04-03T09:53:28;2.70;;;1.47;;
64894;SDS011;51588;53.702;10.208;2023-04-03T09:55:57;3.03;;;1.10;;
64894;SDS011;51588;53.702;10.208;2023-04-03T09:58:26;2.53;;;1.20;;
64894;SDS011;51588;53.702;10.208;2023-04-03T10:00:55;1.93;;;1.07;;
64894;SDS011;51588;53.702;10.208;2023-04-03T10:03:26;1.97;;;1.00;;
64894;SDS011;51588;53.702;10.208;2023-04-03T10:05:55;2.10;;;1.23;;
64894;SDS011;51588;53.702;10.208;2023-04-03T10:08:24;1.13;;;0.90;;
64894;SDS011;51588;53.702;10.208;2023-04-03T10:11:06;5.00;;;1.60;;
64894;SDS011;51588;53.702;10.208;2023-04-03T10:13:37;3.33;;;1.40;;
64894;SDS011;51588;53.702;10.208;2023-04-03T10:16:16;3.23;;;1.40;;
64894;SDS011;51588;53.702;10.208;2023-04-03T10:18:46;1.83;;;1.10;;
64894;SDS011;51588;53.702;10.208;2023-04-03T10:21:20;2.40;;;1.20;;
64894;SDS011;51588;53.702;10.208;2023-04-03T10:23:58;1.97;;;1.07;;
64894;SDS011;51588;53.702;10.208;2023-04-03T10:26:36;1.87;;;1.00;;
64894;SDS011;51588;53.702;10.208;2023-04-03T10:29:15;2.80;;;1.30;;
64894;SDS011;51588;53.702;10.208;2023-04-03T10:31:57;2.37;;;1.13;;
64894;SDS011;51588;53.702;10.208;2023-04-03T10:34:30;2.87;;;1.60;;
64894;SDS011;51588;53.702;10.208;2023-04-03T10:37:01;2.90;;;1.43;;
64894;SDS011;51588;53.702;10.208;2023-04-03T10:39:39;3.10;;;1.50;;
64894;SDS011;51588;53.702;10.208;2023-04-03T10:42:14;3.37;;;1.80;;
64894;SDS011;51588;53.702;10.208;2023-04-03T10:44:52;4.93;;;2.77;;
64894;SDS011;51588;53.702;10.208;2023-04-03T10:47:32;17.77;;;6.80;;
64894;SDS011;51588;53.702;10.208;2023-04-03T10:50:09;18.30;;;9.40;;
64894;SDS011;51588;53.702;10.208;2023-04-03T10:52:54;31.40;;;17.57;;
64894;SDS011;51588;53.702;10.208;2023-04-03T10:55:30;43.13;;;27.53;;
64894;SDS011;51588;53.702;10.208;2023-04-03T10:58:02;39.90;;;27.80;;
64894;SDS011;51588;53.702;10.208;2023-04-03T11:00:33;28.10;;;15.97;;
64894;SDS011;51588;53.702;10.208;2023-04-03T11:03:05;29.00;;;19.80;;
64894;SDS011;51588;53.702;10.208;2023-04-03T11:05:36;9.23;;;6.10;;
64894;SDS011;51588;53.702;10.208;2023-04-03T11:08:08;21.60;;;14.57;;
64894;SDS011;51588;53.702;10.208;2023-04-03T11:10:42;19.30;;;11.57;;
64894;SDS011;51588;53.702;10.208;2023-04-03T11:13:11;15.60;;;9.20;;
64894;SDS011;51588;53.702;10.208;2023-04-03T11:15:43;12.23;;;8.20;;
64894;SDS011;51588;53.702;10.208;2023-04-03T11:18:12;10.20;;;6.50;;
64894;SDS011;51588;53.702;10.208;2023-04-03T11:20:44;10.93;;;6.30;;
64894;SDS011;51588;53.702;10.208;2023-04-03T11:23:21;8.80;;;6.13;;
64894;SDS011;51588;53.702;10.208;2023-04-03T11:25:51;9.60;;;5.37;;
64894;SDS011;51588;53.702;10.208;2023-04-03T11:28:23;9.00;;;5.10;;
64894;SDS011;51588;53.702;10.208;2023-04-03T11:30:53;7.00;;;4.53;;
64894;SDS011;51588;53.702;10.208;2023-04-03T11:33:33;8.60;;;3.93;;
64894;SDS011;51588;53.702;10.208;2023-04-03T11:36:08;7.70;;;4.30;;
64894;SDS011;51588;53.702;10.208;2023-04-03T11:38:41;13.07;;;4.37;;
64894;SDS011;51588;53.702;10.208;2023-04-03T11:41:11;8.43;;;3.93;;
64894;SDS011;51588;53.702;10.208;2023-04-03T11:43:41;7.40;;;4.20;;
64894;SDS011;51588;53.702;10.208;2023-04-03T11:46:16;8.27;;;4.37;;
64894;SDS011;51588;53.702;10.208;2023-04-03T11:48:45;12.80;;;4.40;;
64894;SDS011;51588;53.702;10.208;2023-04-03T12:03:55;7.20;;;2.87;;
64894;SDS011;51588;53.702;10.208;2023-04-03T12:12:29;6.30;;;2.43;;
64894;SDS011;51588;53.702;10.208;2023-04-03T12:17:45;7.13;;;2.93;;
64894;SDS011;51588;53.702;10.208;2023-04-03T12:23:27;5.70;;;2.57;;
64894;SDS011;51588;53.702;10.208;2023-04-03T12:25:59;6.13;;;2.97;;
64894;SDS011;51588;53.702;10.208;2023-04-03T12:28:31;5.73;;;3.00;;
64894;SDS011;51588;53.702;10.208;2023-04-03T12:31:04;7.67;;;3.20;;
64894;SDS011;51588;53.702;10.208;2023-04-03T12:33:33;7.97;;;3.90;;
64894;SDS011;51588;53.702;10.208;2023-04-03T12:36:13;13.83;;;4.30;;
64894;SDS011;51588;53.702;10.208;2023-04-03T12:39:00;16.43;;;5.07;;
64894;SDS011;51588;53.702;10.208;2023-04-03T12:41:36;14.90;;;5.30;;
64894;SDS011;51588;53.702;10.208;2023-04-03T12:46:58;14.30;;;5.70;;
64894;SDS011;51588;53.702;10.208;2023-04-03T12:49:32;15.73;;;6.00;;
64894;SDS011;51588;53.702;10.208;2023-04-03T12:52:03;10.50;;;4.83;;
64894;SDS011;51588;53.702;10.208;2023-04-03T12:54:35;17.00;;;6.00;;
64894;SDS011;51588;53.702;10.208;2023-04-03T12:57:11;15.07;;;5.60;;
64894;SDS011;51588;53.702;10.208;2023-04-03T12:59:38;15.47;;;6.07;;
64894;SDS011;51588;53.702;10.208;2023-04-03T13:02:10;12.83;;;5.40;;
64894;SDS011;51588;53.702;10.208;2023-04-03T13:04:46;11.13;;;4.70;;
64894;SDS011;51588;53.702;10.208;2023-04-03T13:07:18;12.00;;;5.00;;
64894;SDS011;51588;53.702;10.208;2023-04-03T13:09:55;11.67;;;4.50;;
64894;SDS011;51588;53.702;10.208;2023-04-03T13:12:24;15.47;;;5.10;;
64894;SDS011;51588;53.702;10.208;2023-04-03T13:14:51;10.47;;;4.80;;
64894;SDS011;51588;53.702;10.208;2023-04-03T13:17:19;13.93;;;4.30;;
64894;SDS011;51588;53.702;10.208;2023-04-03T13:19:46;10.20;;;4.07;;
64894;SDS011;51588;53.702;10.208;2023-04-03T13:22:18;11.03;;;4.10;;
64894;SDS011;51588;53.702;10.208;2023-04-03T13:24:52;8.23;;;4.03;;
64894;SDS011;51588;53.702;10.208;2023-04-03T13:27:24;9.40;;;4.00;;
64894;SDS011;51588;53.702;10.208;2023-04-03T13:29:52;7.67;;;3.80;;
64894;SDS011;51588;53.702;10.208;2023-04-03T13:32:21;7.97;;;3.60;;
64894;SDS011;51588;53.702;10.208;2023-04-03T13:34:50;10.10;;;3.50;;
64894;SDS011;51588;53.702;10.208;2023-04-03T13:37:22;10.80;;;4.17;;
64894;SDS011;51588;53.702;10.208;2023-04-03T13:40:02;7.10;;;3.20;;
64894;SDS011;51588;53.702;10.208;2023-04-03T13:42:37;8.30;;;3.50;;
64894;SDS011;51588;53.702;10.208;2023-04-03T13:45:09;8.60;;;3.70;;
64894;SDS011;51588;53.702;10.208;2023-04-03T13:47:51;8.17;;;3.60;;
64894;SDS011;51588;53.702;10.208;2023-04-03T13:50:20;6.03;;;3.03;;
64894;SDS011;51588;53.702;10.208;2023-04-03T13:52:52;7.33;;;3.70;;
64894;SDS011;51588;53.702;10.208;2023-04-03T13:55:22;7.03;;;3.00;;
64894;SDS011;51588;53.702;10.208;2023-04-03T13:57:54;7.72;;;3.60;;
64894;SDS011;51588;53.702;10.208;2023-04-03T14:00:30;6.20;;;2.90;;
64894;SDS011;51588;53.702;10.208;2023-04-03T14:03:01;7.13;;;3.30;;
64894;SDS011;51588;53.702;10.208;2023-04-03T14:05:27;4.93;;;2.90;;
64894;SDS011;51588;53.702;10.208;2023-04-03T14:07:54;10.27;;;3.20;;
64894;SDS011;51588;53.702;10.208;2023-04-03T14:10:23;8.53;;;2.87;;
64894;SDS011;51588;53.702;10.208;2023-04-03T14:12:50;3.70;;;2.30;;
64894;SDS011;51588;53.702;10.208;2023-04-03T14:15:18;4.00;;;2.20;;
64894;SDS011;51588;53.702;10.208;2023-04-03T14:17:46;6.23;;;2.67;;
64894;SDS011;51588;53.702;10.208;2023-04-03T14:20:14;6.43;;;2.40;;
64894;SDS011;51588;53.702;10.208;2023-04-03T14:22:42;4.17;;;2.57;;
64894;SDS011;51588;53.702;10.208;2023-04-03T14:25:09;5.37;;;2.40;;
64894;SDS011;51588;53.702;10.208;2023-04-03T14:27:38;3.43;;;2.10;;
64894;SDS011;51588;53.702;10.208;2023-04-03T14:30:08;4.40;;;2.63;;
64894;SDS011;51588;53.702;10.208;2023-04-03T14:32:38;8.37;;;3.40;;
64894;SDS011;51588;53.702;10.208;2023-04-03T14:35:05;9.47;;;2.90;;
64894;SDS011;51588;53.702;10.208;2023-04-03T14:37:32;8.27;;;2.90;;
64894;SDS011;51588;53.702;10.208;2023-04-03T14:40:00;5.57;;;2.80;;
64894;SDS011;51588;53.702;10.208;2023-04-03T14:42:29;5.60;;;2.27;;
64894;SDS011;51588;53.702;10.208;2023-04-03T14:44:59;4.53;;;2.30;;
64894;SDS011;51588;53.702;10.208;2023-04-03T14:47:28;3.23;;;2.10;;
64894;SDS011;51588;53.702;10.208;2023-04-03T14:49:56;4.30;;;2.40;;
64894;SDS011;51588;53.702;10.208;2023-04-03T14:52:23;5.03;;;2.37;;
64894;SDS011;51588;53.702;10.208;2023-04-03T14:54:53;3.37;;;2.17;;
64894;SDS011;51588;53.702;10.208;2023-04-03T14:57:20;6.93;;;2.57;;
64894;SDS011;51588;53.702;10.208;2023-04-03T14:59:50;6.83;;;2.50;;
64894;SDS011;51588;53.702;10.208;2023-04-03T15:02:24;4.67;;;2.13;;
64894;SDS011;51588;53.702;10.208;2023-04-03T15:04:52;8.40;;;2.53;;
64894;SDS011;51588;53.702;10.208;2023-04-03T15:07:19;4.73;;;2.33;;
64894;SDS011;51588;53.702;10.208;2023-04-03T15:09:46;4.10;;;1.87;;
64894;SDS011;51588;53.702;10.208;2023-04-03T15:12:12;3.67;;;2.07;;